sensor_id;sensor_type;location;lat;lon;timestamp;pressure;altitude;pressure_sealevel;temperature;humidity
57442;BME280;43284;47.042;15.498;2023-07-31T00:00:40;97044.28;;;15.84;100.00
57442;BME280;43284;47.042;15.498;2023-07-31T00:03:06;97036.47;;;15.70;100.00
57442;BME280;43284;47.042;15.498;2023-07-31T00:05:31;97038.38;;;15.68;100.00
57442;BME280;43284;47.042;15.498;2023-07-31T00:07:57;97037.97;;;15.61;100.00
57442;BME280;43284;47.042;15.498;2023-07-31T00:10:22;97031.03;;;15.60;100.00
57442;BME280;43284;47.042;15.498;2023-07-31T00:12:48;97030.53;;;15.55;100.00
57442;BME280;43284;47.042;15.498;2023-07-31T00:15:14;97020.53;;;15.47;100.00
57442;BME280;43284;47.042;15.498;2023-07-31T00:17:40;97024.13;;;15.46;100.00
57442;BME280;43284;47.042;15.498;2023-07-31T00:20:06;97023.25;;;15.45;100.00
57442;BME280;43284;47.042;15.498;2023-07-31T00:22:32;97024.44;;;15.41;100.00
57442;BME280;43284;47.042;15.498;2023-07-31T00:24:57;97031.63;;;15.39;100.00
57442;BME280;43284;47.042;15.498;2023-07-31T00:27:23;97021.06;;;15.39;100.00
57442;BME280;43284;47.042;15.498;2023-07-31T00:29:49;97026.03;;;15.44;100.00
57442;BME280;43284;47.042;15.498;2023-07-31T00:32:17;97028.94;;;15.52;100.00
57442;BME280;43284;47.042;15.498;2023-07-31T00:34:42;97036.41;;;15.58;100.00
57442;BME280;43284;47.042;15.498;2023-07-31T00:37:08;97028.31;;;15.61;100.00
57442;BME280;43284;47.042;15.498;2023-07-31T00:39:34;97035.56;;;15.58;100.00
57442;BME280;43284;47.042;15.498;2023-07-31T00:42:00;97029.78;;;15.53;100.00
57442;BME280;43284;47.042;15.498;2023-07-31T00:44:26;97036.09;;;15.50;100.00
57442;BME280;43284;47.042;15.498;2023-07-31T00:46:52;97043.72;;;15.42;100.00
57442;BME280;43284;47.042;15.498;2023-07-31T00:49:18;97043.50;;;15.32;100.00
57442;BME280;43284;47.042;15.498;2023-07-31T00:51:43;97031.06;;;15.34;100.00
57442;BME280;43284;47.042;15.498;2023-07-31T00:54:09;97041.00;;;15.31;100.00
57442;BME280;43284;47.042;15.498;2023-07-31T00:56:36;97033.19;;;15.29;100.00
57442;BME280;43284;47.042;15.498;2023-07-31T00:59:02;97038.56;;;15.28;100.00
57442;BME280;43284;47.042;15.498;2023-07-31T01:01:27;97038.78;;;15.24;100.00
57442;BME280;43284;47.042;15.498;2023-07-31T01:03:53;97036.03;;;15.26;100.00
57442;BME280;43284;47.042;15.498;2023-07-31T01:11:36;97025.19;;;15.31;100.00
57442;BME280;43284;47.042;15.498;2023-07-31T01:14:03;97015.28;;;15.34;100.00
57442;BME280;43284;47.042;15.498;2023-07-31T01:16:29;97027.09;;;15.29;100.00
57442;BME280;43284;47.042;15.498;2023-07-31T01:18:54;97014.34;;;15.22;100.00
57442;BME280;43284;47.042;15.498;2023-07-31T01:21:30;97012.56;;;15.23;100.00
57442;BME280;43284;47.042;15.498;2023-07-31T01:26:57;97019.53;;;15.24;100.00
57442;BME280;43284;47.042;15.498;2023-07-31T01:29:32;97017.19;;;15.19;100.00
57442;BME280;43284;47.042;15.498;2023-07-31T01:32:02;97014.66;;;15.18;100.00
57442;BME280;43284;47.042;15.498;2023-07-31T01:34:29;97009.72;;;15.13;100.00
57442;BME280;43284;47.042;15.498;2023-07-31T01:36:56;97020.44;;;15.10;100.00
57442;BME280;43284;47.042;15.498;2023-07-31T01:39:21;97023.41;;;15.06;100.00
57442;BME280;43284;47.042;15.498;2023-07-31T01:41:47;97031.22;;;15.07;100.00
57442;BME280;43284;47.042;15.498;2023-07-31T01:44:12;97037.09;;;15.11;100.00
57442;BME280;43284;47.042;15.498;2023-07-31T01:46:38;97031.81;;;15.11;100.00
57442;BME280;43284;47.042;15.498;2023-07-31T01:49:05;97033.53;;;15.12;100.00
57442;BME280;43284;47.042;15.498;2023-07-31T01:51:31;97027.41;;;15.11;100.00
57442;BME280;43284;47.042;15.498;2023-07-31T01:54:00;97024.88;;;15.10;100.00
57442;BME280;43284;47.042;15.498;2023-07-31T01:56:25;97032.69;;;15.11;100.00
57442;BME280;43284;47.042;15.498;2023-07-31T01:58:51;97025.94;;;15.07;100.00
57442;BME280;43284;47.042;15.498;2023-07-31T02:01:16;97028.66;;;15.06;100.00
57442;BME280;43284;47.042;15.498;2023-07-31T02:03:42;97026.88;;;15.06;100.00
57442;BME280;43284;47.042;15.498;2023-07-31T02:06:07;97024.06;;;15.09;100.00
57442;BME280;43284;47.042;15.498;2023-07-31T02:08:33;97033.19;;;15.16;100.00
57442;BME280;43284;47.042;15.498;2023-07-31T02:10:58;97035.59;;;15.19;100.00
57442;BME280;43284;47.042;15.498;2023-07-31T02:13:24;97034.78;;;15.19;100.00
57442;BME280;43284;47.042;15.498;2023-07-31T02:15:49;97041.00;;;15.18;100.00
57442;BME280;43284;47.042;15.498;2023-07-31T02:18:16;97037.50;;;15.17;100.00
57442;BME280;43284;47.042;15.498;2023-07-31T02:20:41;97034.88;;;15.17;100.00
57442;BME280;43284;47.042;15.498;2023-07-31T02:23:07;97036.78;;;15.15;100.00
57442;BME280;43284;47.042;15.498;2023-07-31T02:25:32;97042.25;;;15.12;100.00
57442;BME280;43284;47.042;15.498;2023-07-31T02:27:58;97047.75;;;15.09;100.00
57442;BME280;43284;47.042;15.498;2023-07-31T02:30:23;97044.28;;;15.09;100.00
57442;BME280;43284;47.042;15.498;2023-07-31T02:32:49;97043.53;;;15.07;100.00
57442;BME280;43284;47.042;15.498;2023-07-31T02:35:14;97044.78;;;15.01;100.00
57442;BME280;43284;47.042;15.498;2023-07-31T02:37:42;97047.63;;;14.98;100.00
57442;BME280;43284;47.042;15.498;2023-07-31T02:40:07;97044.78;;;15.01;100.00
57442;BME280;43284;47.042;15.498;2023-07-31T02:42:33;97050.78;;;15.03;100.00
57442;BME280;43284;47.042;15.498;2023-07-31T02:44:58;97043.53;;;15.07;100.00
57442;BME280;43284;47.042;15.498;2023-07-31T02:47:24;97049.00;;;15.16;100.00
57442;BME280;43284;47.042;15.498;2023-07-31T02:49:50;97047.19;;;15.04;100.00
57442;BME280;43284;47.042;15.498;2023-07-31T02:52:15;97047.84;;;14.95;100.00
57442;BME280;43284;47.042;15.498;2023-07-31T02:54:41;97043.53;;;14.94;100.00
57442;BME280;43284;47.042;15.498;2023-07-31T02:57:06;97041.31;;;14.88;100.00
57442;BME280;43284;47.042;15.498;2023-07-31T02:59:32;97042.38;;;14.85;100.00
57442;BME280;43284;47.042;15.498;2023-07-31T03:01:57;97041.94;;;14.91;100.00
57442;BME280;43284;47.042;15.498;2023-07-31T03:04:23;97042.97;;;14.89;100.00
57442;BME280;43284;47.042;15.498;2023-07-31T03:06:48;97050.47;;;14.95;100.00
57442;BME280;43284;47.042;15.498;2023-07-31T03:09:14;97044.03;;;14.99;100.00
57442;BME280;43284;47.042;15.498;2023-07-31T03:11:39;97048.78;;;14.94;100.00
57442;BME280;43284;47.042;15.498;2023-07-31T03:14:05;97046.56;;;14.88;100.00
57442;BME280;43284;47.042;15.498;2023-07-31T03:16:31;97047.41;;;14.88;100.00
57442;BME280;43284;47.042;15.498;2023-07-31T03:18:56;97047.31;;;14.90;100.00
57442;BME280;43284;47.042;15.498;2023-07-31T03:21:22;97052.75;;;14.87;100.00
57442;BME280;43284;47.042;15.498;2023-07-31T03:23:47;97050.44;;;14.82;100.00
57442;BME280;43284;47.042;15.498;2023-07-31T03:26:13;97051.19;;;14.84;100.00
57442;BME280;43284;47.042;15.498;2023-07-31T03:28:38;97053.50;;;14.76;100.00
57442;BME280;43284;47.042;15.498;2023-07-31T03:31:04;97061.81;;;14.70;100.00
57442;BME280;43284;47.042;15.498;2023-07-31T03:33:30;97071.69;;;14.66;100.00
57442;BME280;43284;47.042;15.498;2023-07-31T03:35:55;97074.72;;;14.60;100.00
57442;BME280;43284;47.042;15.498;2023-07-31T03:38:21;97073.31;;;14.54;100.00
57442;BME280;43284;47.042;15.498;2023-07-31T03:40:46;97071.94;;;14.49;100.00
57442;BME280;43284;47.042;15.498;2023-07-31T03:43:12;97076.53;;;14.45;100.00
57442;BME280;43284;47.042;15.498;2023-07-31T03:45:38;97070.25;;;14.48;100.00
57442;BME280;43284;47.042;15.498;2023-07-31T03:48:04;97071.00;;;14.50;100.00
57442;BME280;43284;47.042;15.498;2023-07-31T03:50:29;97072.59;;;14.52;100.00
57442;BME280;43284;47.042;15.498;2023-07-31T03:52:55;97068.16;;;14.53;100.00
57442;BME280;43284;47.042;15.498;2023-07-31T03:55:20;97068.25;;;14.51;100.00
57442;BME280;43284;47.042;15.498;2023-07-31T03:57:47;97071.00;;;14.50;100.00
57442;BME280;43284;47.042;15.498;2023-07-31T04:00:13;97069.31;;;14.49;100.00
57442;BME280;43284;47.042;15.498;2023-07-31T04:02:38;97071.94;;;14.49;100.00
57442;BME280;43284;47.042;15.498;2023-07-31T04:05:04;97080.56;;;14.51;100.00
57442;BME280;43284;47.042;15.498;2023-07-31T04:07:29;97071.09;;;14.48;100.00
57442;BME280;43284;47.042;15.498;2023-07-31T04:09:56;97073.81;;;14.47;100.00
57442;BME280;43284;47.042;15.498;2023-07-31T04:12:22;97072.47;;;14.54;100.00
57442;BME280;43284;47.042;15.498;2023-07-31T04:14:47;97074.47;;;14.50;100.00
57442;BME280;43284;47.042;15.498;2023-07-31T04:17:13;97072.22;;;14.44;100.00
57442;BME280;43284;47.042;15.498;2023-07-31T04:19:39;97071.59;;;14.40;100.00
57442;BME280;43284;47.042;15.498;2023-07-31T04:22:04;97078.72;;;14.38;100.00
57442;BME280;43284;47.042;15.498;2023-07-31T04:24:30;97069.91;;;14.39;100.00
57442;BME280;43284;47.042;15.498;2023-07-31T04:26:55;97079.38;;;14.42;100.00
57442;BME280;43284;47.042;15.498;2023-07-31T04:29:21;97075.81;;;14.43;100.00
57442;BME280;43284;47.042;15.498;2023-07-31T04:31:48;97071.50;;;14.42;100.00
57442;BME280;43284;47.042;15.498;2023-07-31T04:34:14;97074.97;;;14.42;100.00
57442;BME280;43284;47.042;15.498;2023-07-31T04:36:39;97075.69;;;14.45;100.00
57442;BME280;43284;47.042;15.498;2023-07-31T04:39:05;97071.72;;;14.52;100.00
57442;BME280;43284;47.042;15.498;2023-07-31T04:41:31;97078.50;;;14.56;100.00
57442;BME280;43284;47.042;15.498;2023-07-31T04:43:56;97069.06;;;14.66;100.00
57442;BME280;43284;47.042;15.498;2023-07-31T04:46:22;97078.44;;;14.70;100.00
57442;BME280;43284;47.042;15.498;2023-07-31T04:48:47;97076.84;;;14.68;100.00
57442;BME280;43284;47.042;15.498;2023-07-31T04:51:13;97080.09;;;14.71;100.00
57442;BME280;43284;47.042;15.498;2023-07-31T04:53:38;97080.75;;;14.75;100.00
57442;BME280;43284;47.042;15.498;2023-07-31T04:56:04;97076.25;;;14.77;100.00
57442;BME280;43284;47.042;15.498;2023-07-31T04:58:29;97085.72;;;14.79;100.00
57442;BME280;43284;47.042;15.498;2023-07-31T05:00:55;97090.13;;;14.79;100.00
57442;BME280;43284;47.042;15.498;2023-07-31T05:03:20;97089.19;;;14.80;100.00
57442;BME280;43284;47.042;15.498;2023-07-31T05:05:46;97079.53;;;14.80;100.00
57442;BME280;43284;47.042;15.498;2023-07-31T05:08:14;97084.56;;;14.83;100.00
57442;BME280;43284;47.042;15.498;2023-07-31T05:10:39;97078.25;;;14.86;100.00
57442;BME280;43284;47.042;15.498;2023-07-31T05:13:05;97083.19;;;14.91;100.00
57442;BME280;43284;47.042;15.498;2023-07-31T05:15:31;97079.41;;;14.95;100.00
57442;BME280;43284;47.042;15.498;2023-07-31T05:17:56;97081.72;;;14.99;100.00
57442;BME280;43284;47.042;15.498;2023-07-31T05:20:22;97086.81;;;15.02;100.00
57442;BME280;43284;47.042;15.498;2023-07-31T05:22:47;97089.97;;;15.08;100.00
57442;BME280;43284;47.042;15.498;2023-07-31T05:25:13;97092.38;;;15.11;100.00
57442;BME280;43284;47.042;15.498;2023-07-31T05:27:38;97093.75;;;15.16;100.00
57442;BME280;43284;47.042;15.498;2023-07-31T05:30:04;97100.50;;;15.20;100.00
57442;BME280;43284;47.042;15.498;2023-07-31T05:32:30;97102.81;;;15.25;100.00
57442;BME280;43284;47.042;15.498;2023-07-31T05:34:56;97109.47;;;15.31;100.00
57442;BME280;43284;47.042;15.498;2023-07-31T05:37:21;97110.00;;;15.36;100.00
57442;BME280;43284;47.042;15.498;2023-07-31T05:39:47;97115.78;;;15.41;100.00
57442;BME280;43284;47.042;15.498;2023-07-31T05:42:12;97117.06;;;15.48;100.00
57442;BME280;43284;47.042;15.498;2023-07-31T05:44:38;97116.28;;;15.59;100.00
57442;BME280;43284;47.042;15.498;2023-07-31T05:47:04;97117.66;;;15.64;100.00
57442;BME280;43284;47.042;15.498;2023-07-31T05:49:29;97124.03;;;15.75;100.00
57442;BME280;43284;47.042;15.498;2023-07-31T05:51:55;97122.00;;;15.78;100.00
57442;BME280;43284;47.042;15.498;2023-07-31T05:54:20;97126.34;;;15.79;100.00
57442;BME280;43284;47.042;15.498;2023-07-31T05:56:46;97128.63;;;15.84;100.00
57442;BME280;43284;47.042;15.498;2023-07-31T05:59:12;97128.41;;;15.87;100.00
57442;BME280;43284;47.042;15.498;2023-07-31T06:01:39;97130.63;;;15.93;100.00
57442;BME280;43284;47.042;15.498;2023-07-31T06:04:04;97124.09;;;15.99;100.00
57442;BME280;43284;47.042;15.498;2023-07-31T06:06:30;97123.53;;;16.06;100.00
57442;BME280;43284;47.042;15.498;2023-07-31T06:08:55;97123.72;;;16.16;100.00
57442;BME280;43284;47.042;15.498;2023-07-31T06:11:21;97120.75;;;16.21;100.00
57442;BME280;43284;47.042;15.498;2023-07-31T06:13:47;97125.47;;;16.28;100.00
57442;BME280;43284;47.042;15.498;2023-07-31T06:16:14;97125.75;;;16.37;100.00
57442;BME280;43284;47.042;15.498;2023-07-31T06:18:41;97118.22;;;16.43;100.00
57442;BME280;43284;47.042;15.498;2023-07-31T06:21:06;97108.81;;;16.52;100.00
57442;BME280;43284;47.042;15.498;2023-07-31T06:23:32;97112.78;;;16.58;100.00
57442;BME280;43284;47.042;15.498;2023-07-31T06:25:57;97100.00;;;16.64;100.00
57442;BME280;43284;47.042;15.498;2023-07-31T06:28:30;97102.50;;;16.66;100.00
57442;BME280;43284;47.042;15.498;2023-07-31T06:30:56;97097.63;;;16.73;100.00
57442;BME280;43284;47.042;15.498;2023-07-31T06:33:21;97098.75;;;16.81;100.00
57442;BME280;43284;47.042;15.498;2023-07-31T06:35:47;97101.66;;;16.89;100.00
57442;BME280;43284;47.042;15.498;2023-07-31T06:38:12;97104.56;;;16.98;100.00
57442;BME280;43284;47.042;15.498;2023-07-31T06:40:38;97101.84;;;17.11;100.00
57442;BME280;43284;47.042;15.498;2023-07-31T06:43:03;97104.25;;;17.25;100.00
57442;BME280;43284;47.042;15.498;2023-07-31T06:45:36;97109.72;;;17.46;100.00
57442;BME280;43284;47.042;15.498;2023-07-31T06:48:02;97106.22;;;17.57;100.00
57442;BME280;43284;47.042;15.498;2023-07-31T06:50:29;97097.00;;;17.62;92.17
57442;BME280;43284;47.042;15.498;2023-07-31T06:52:55;97096.28;;;17.71;92.18
57442;BME280;43284;47.042;15.498;2023-07-31T06:55:21;97097.25;;;17.82;94.31
57442;BME280;43284;47.042;15.498;2023-07-31T06:57:52;97095.81;;;17.89;96.35
57442;BME280;43284;47.042;15.498;2023-07-31T07:00:18;97102.28;;;17.96;94.88
57442;BME280;43284;47.042;15.498;2023-07-31T07:02:44;97088.22;;;18.07;94.45
57442;BME280;43284;47.042;15.498;2023-07-31T07:05:11;97085.19;;;18.11;94.71
57442;BME280;43284;47.042;15.498;2023-07-31T07:07:37;97083.59;;;18.20;95.77
57442;BME280;43284;47.042;15.498;2023-07-31T07:10:02;97082.03;;;18.29;96.80
57442;BME280;43284;47.042;15.498;2023-07-31T07:12:30;97081.41;;;18.37;94.35
57442;BME280;43284;47.042;15.498;2023-07-31T07:14:55;97083.53;;;18.43;94.52
57442;BME280;43284;47.042;15.498;2023-07-31T07:17:22;97094.94;;;18.55;95.93
57442;BME280;43284;47.042;15.498;2023-07-31T07:19:48;97091.53;;;18.64;96.81
57442;BME280;43284;47.042;15.498;2023-07-31T07:22:14;97101.13;;;18.76;99.92
57442;BME280;43284;47.042;15.498;2023-07-31T07:24:39;97101.72;;;18.80;99.44
57442;BME280;43284;47.042;15.498;2023-07-31T07:27:05;97102.78;;;18.88;100.00
57442;BME280;43284;47.042;15.498;2023-07-31T07:29:31;97104.41;;;19.01;97.37
57442;BME280;43284;47.042;15.498;2023-07-31T07:31:56;97097.63;;;19.08;97.82
57442;BME280;43284;47.042;15.498;2023-07-31T07:34:28;97098.44;;;19.08;94.61
57442;BME280;43284;47.042;15.498;2023-07-31T07:36:54;97093.88;;;19.10;91.97
57442;BME280;43284;47.042;15.498;2023-07-31T07:39:20;97094.25;;;19.27;90.61
57442;BME280;43284;47.042;15.498;2023-07-31T07:41:46;97088.44;;;19.33;90.23
57442;BME280;43284;47.042;15.498;2023-07-31T07:44:12;97092.78;;;19.44;87.67
57442;BME280;43284;47.042;15.498;2023-07-31T07:46:38;97090.31;;;19.42;87.51
57442;BME280;43284;47.042;15.498;2023-07-31T07:49:04;97088.38;;;19.44;85.77
57442;BME280;43284;47.042;15.498;2023-07-31T07:51:29;97086.56;;;19.54;87.29
57442;BME280;43284;47.042;15.498;2023-07-31T07:53:57;97080.63;;;19.62;87.57
57442;BME280;43284;47.042;15.498;2023-07-31T07:56:23;97077.56;;;19.67;82.25
57442;BME280;43284;47.042;15.498;2023-07-31T07:58:50;97076.25;;;19.72;81.15
57442;BME280;43284;47.042;15.498;2023-07-31T08:01:16;97075.84;;;19.87;81.45
57442;BME280;43284;47.042;15.498;2023-07-31T08:03:41;97076.31;;;19.92;78.37
57442;BME280;43284;47.042;15.498;2023-07-31T08:06:07;97074.66;;;20.01;79.32
57442;BME280;43284;47.042;15.498;2023-07-31T08:08:34;97075.50;;;20.11;73.66
57442;BME280;43284;47.042;15.498;2023-07-31T08:11:00;97077.22;;;20.22;76.48
57442;BME280;43284;47.042;15.498;2023-07-31T08:13:25;97069.94;;;20.24;75.35
57442;BME280;43284;47.042;15.498;2023-07-31T08:15:51;97069.00;;;20.34;79.01
57442;BME280;43284;47.042;15.498;2023-07-31T08:18:16;97065.38;;;20.45;76.28
57442;BME280;43284;47.042;15.498;2023-07-31T08:20:42;97062.28;;;20.50;77.17
57442;BME280;43284;47.042;15.498;2023-07-31T08:23:08;97068.59;;;20.68;80.02
57442;BME280;43284;47.042;15.498;2023-07-31T08:25:35;97060.91;;;20.75;80.78
57442;BME280;43284;47.042;15.498;2023-07-31T08:28:01;97059.66;;;20.79;77.90
57442;BME280;43284;47.042;15.498;2023-07-31T08:30:27;97063.59;;;20.85;79.60
57442;BME280;43284;47.042;15.498;2023-07-31T08:32:52;97066.50;;;20.91;79.48
57442;BME280;43284;47.042;15.498;2023-07-31T08:35:18;97069.16;;;20.91;78.24
57442;BME280;43284;47.042;15.498;2023-07-31T08:37:43;97057.69;;;21.01;78.87
57442;BME280;43284;47.042;15.498;2023-07-31T08:40:09;97058.25;;;21.04;78.93
57442;BME280;43284;47.042;15.498;2023-07-31T08:42:46;97065.50;;;21.12;79.12
57442;BME280;43284;47.042;15.498;2023-07-31T08:45:16;97065.22;;;21.15;78.29
57442;BME280;43284;47.042;15.498;2023-07-31T08:47:46;97063.09;;;21.28;77.15
57442;BME280;43284;47.042;15.498;2023-07-31T08:50:13;97055.56;;;21.24;73.31
57442;BME280;43284;47.042;15.498;2023-07-31T08:52:39;97062.09;;;21.29;75.19
57442;BME280;43284;47.042;15.498;2023-07-31T08:55:06;97060.31;;;21.30;77.71
57442;BME280;43284;47.042;15.498;2023-07-31T08:57:35;97063.66;;;21.42;79.71
57442;BME280;43284;47.042;15.498;2023-07-31T09:00:02;97056.91;;;21.47;74.99
57442;BME280;43284;47.042;15.498;2023-07-31T09:02:34;97064.03;;;21.56;69.00
57442;BME280;43284;47.042;15.498;2023-07-31T09:05:03;97058.97;;;21.63;70.08
57442;BME280;43284;47.042;15.498;2023-07-31T09:07:30;97060.59;;;21.74;69.38
57442;BME280;43284;47.042;15.498;2023-07-31T09:09:57;97059.41;;;21.86;73.71
57442;BME280;43284;47.042;15.498;2023-07-31T09:12:22;97064.13;;;21.92;72.11
57442;BME280;43284;47.042;15.498;2023-07-31T09:14:48;97061.47;;;21.92;72.12
57442;BME280;43284;47.042;15.498;2023-07-31T09:17:13;97061.97;;;22.06;75.41
57442;BME280;43284;47.042;15.498;2023-07-31T09:19:39;97054.75;;;22.16;73.82
57442;BME280;43284;47.042;15.498;2023-07-31T09:22:06;97057.25;;;22.27;75.08
57442;BME280;43284;47.042;15.498;2023-07-31T09:24:33;97048.09;;;22.30;72.02
57442;BME280;43284;47.042;15.498;2023-07-31T09:26:59;97048.88;;;22.40;71.29
57442;BME280;43284;47.042;15.498;2023-07-31T09:29:26;97046.09;;;22.41;71.09
57442;BME280;43284;47.042;15.498;2023-07-31T09:31:53;97048.66;;;22.51;73.63
57442;BME280;43284;47.042;15.498;2023-07-31T09:34:19;97050.47;;;22.69;72.62
57442;BME280;43284;47.042;15.498;2023-07-31T09:36:49;97044.06;;;22.79;70.32
57442;BME280;43284;47.042;15.498;2023-07-31T09:39:17;97044.97;;;22.88;68.21
57442;BME280;43284;47.042;15.498;2023-07-31T09:41:44;97038.00;;;22.87;66.38
57442;BME280;43284;47.042;15.498;2023-07-31T09:44:11;97035.47;;;22.86;68.15
57442;BME280;43284;47.042;15.498;2023-07-31T09:46:37;97031.03;;;22.94;70.26
57442;BME280;43284;47.042;15.498;2023-07-31T09:49:10;97021.66;;;23.08;72.83
57442;BME280;43284;47.042;15.498;2023-07-31T09:51:37;97022.97;;;23.30;68.23
57442;BME280;43284;47.042;15.498;2023-07-31T09:54:16;97019.53;;;23.38;66.42
57442;BME280;43284;47.042;15.498;2023-07-31T09:56:47;97022.00;;;23.39;66.37
57442;BME280;43284;47.042;15.498;2023-07-31T09:59:18;97014.97;;;23.30;65.45
57442;BME280;43284;47.042;15.498;2023-07-31T10:01:45;97014.06;;;23.21;66.02
57442;BME280;43284;47.042;15.498;2023-07-31T10:04:13;97010.03;;;23.09;65.45
57442;BME280;43284;47.042;15.498;2023-07-31T10:06:40;97011.81;;;23.09;68.64
57442;BME280;43284;47.042;15.498;2023-07-31T10:09:09;97002.22;;;23.16;67.81
57442;BME280;43284;47.042;15.498;2023-07-31T10:11:47;97006.28;;;23.28;69.44
57442;BME280;43284;47.042;15.498;2023-07-31T10:14:19;97012.41;;;23.47;70.11
57442;BME280;43284;47.042;15.498;2023-07-31T10:16:45;97000.75;;;23.56;68.33
57442;BME280;43284;47.042;15.498;2023-07-31T10:19:11;97001.63;;;23.64;67.59
57442;BME280;43284;47.042;15.498;2023-07-31T10:21:37;96991.81;;;23.73;66.98
57442;BME280;43284;47.042;15.498;2023-07-31T10:24:04;96988.69;;;23.78;65.12
57442;BME280;43284;47.042;15.498;2023-07-31T10:26:31;96982.31;;;23.71;66.46
57442;BME280;43284;47.042;15.498;2023-07-31T10:29:00;96988.88;;;23.84;67.68
57442;BME280;43284;47.042;15.498;2023-07-31T10:31:28;96986.28;;;24.01;66.90
57442;BME280;43284;47.042;15.498;2023-07-31T10:33:54;96982.75;;;23.92;62.03
57442;BME280;43284;47.042;15.498;2023-07-31T10:36:21;96981.72;;;23.77;66.09
57442;BME280;43284;47.042;15.498;2023-07-31T10:38:50;96981.56;;;23.87;65.76
57442;BME280;43284;47.042;15.498;2023-07-31T10:41:18;96968.22;;;24.03;64.33
57442;BME280;43284;47.042;15.498;2023-07-31T10:43:46;96976.91;;;24.05;66.66
57442;BME280;43284;47.042;15.498;2023-07-31T10:46:13;96972.44;;;24.14;61.97
57442;BME280;43284;47.042;15.498;2023-07-31T10:48:39;96970.78;;;24.13;64.19
57442;BME280;43284;47.042;15.498;2023-07-31T10:51:11;96969.06;;;23.95;62.26
57442;BME280;43284;47.042;15.498;2023-07-31T10:53:38;96974.94;;;23.99;62.19
57442;BME280;43284;47.042;15.498;2023-07-31T10:56:05;96970.06;;;24.02;63.75
57442;BME280;43284;47.042;15.498;2023-07-31T10:58:31;96975.94;;;24.06;63.61
57442;BME280;43284;47.042;15.498;2023-07-31T11:01:02;96975.28;;;24.29;63.77
57442;BME280;43284;47.042;15.498;2023-07-31T11:03:48;96968.97;;;24.46;62.77
57442;BME280;43284;47.042;15.498;2023-07-31T11:06:16;96968.50;;;24.51;58.75
57442;BME280;43284;47.042;15.498;2023-07-31T11:08:43;96966.34;;;24.54;61.85
57442;BME280;43284;47.042;15.498;2023-07-31T11:11:13;96961.31;;;24.59;59.68
57442;BME280;43284;47.042;15.498;2023-07-31T11:16:11;96954.81;;;24.54;62.74
57442;BME280;43284;47.042;15.498;2023-07-31T11:18:44;96953.94;;;24.45;61.76
57442;BME280;43284;47.042;15.498;2023-07-31T11:21:14;96957.59;;;24.44;64.97
57442;BME280;43284;47.042;15.498;2023-07-31T11:23:40;96954.16;;;24.52;62.59
57442;BME280;43284;47.042;15.498;2023-07-31T11:26:06;96946.59;;;24.55;63.21
57442;BME280;43284;47.042;15.498;2023-07-31T11:28:33;96943.09;;;24.55;59.97
57442;BME280;43284;47.042;15.498;2023-07-31T11:30:59;96941.25;;;24.63;60.96
57442;BME280;43284;47.042;15.498;2023-07-31T11:33:25;96938.75;;;24.78;60.00
57442;BME280;43284;47.042;15.498;2023-07-31T11:35:51;96935.72;;;24.90;61.02
57442;BME280;43284;47.042;15.498;2023-07-31T11:38:30;96923.00;;;24.92;58.93
57442;BME280;43284;47.042;15.498;2023-07-31T11:41:04;96925.84;;;24.90;60.84
57442;BME280;43284;47.042;15.498;2023-07-31T11:43:33;96930.22;;;24.91;61.35
57442;BME280;43284;47.042;15.498;2023-07-31T11:46:01;96927.38;;;24.84;59.79
57442;BME280;43284;47.042;15.498;2023-07-31T11:48:33;96917.16;;;24.96;60.12
57442;BME280;43284;47.042;15.498;2023-07-31T11:51:03;96917.28;;;25.11;61.79
57442;BME280;43284;47.042;15.498;2023-07-31T11:53:35;96914.03;;;25.40;60.99
57442;BME280;43284;47.042;15.498;2023-07-31T11:56:02;96906.25;;;25.54;58.15
57442;BME280;43284;47.042;15.498;2023-07-31T11:58:33;96899.16;;;25.69;59.80
57442;BME280;43284;47.042;15.498;2023-07-31T12:00:59;96904.09;;;25.88;57.72
57442;BME280;43284;47.042;15.498;2023-07-31T12:03:26;96898.66;;;25.74;57.89
57442;BME280;43284;47.042;15.498;2023-07-31T12:05:53;96891.09;;;25.77;58.24
57442;BME280;43284;47.042;15.498;2023-07-31T12:08:21;96886.84;;;25.91;60.43
57442;BME280;43284;47.042;15.498;2023-07-31T12:10:46;96884.06;;;26.07;59.40
57442;BME280;43284;47.042;15.498;2023-07-31T12:13:22;96880.41;;;26.23;58.55
57442;BME280;43284;47.042;15.498;2023-07-31T12:15:49;96876.63;;;26.33;58.06
57442;BME280;43284;47.042;15.498;2023-07-31T12:18:16;96872.03;;;26.41;56.30
57442;BME280;43284;47.042;15.498;2023-07-31T12:21:04;96868.28;;;26.50;57.64
57442;BME280;43284;47.042;15.498;2023-07-31T12:23:32;96860.81;;;26.61;57.82
57442;BME280;43284;47.042;15.498;2023-07-31T12:26:14;96853.75;;;26.68;56.72
57442;BME280;43284;47.042;15.498;2023-07-31T12:28:42;96855.34;;;26.54;56.02
57442;BME280;43284;47.042;15.498;2023-07-31T12:31:12;96849.84;;;26.33;54.85
57442;BME280;43284;47.042;15.498;2023-07-31T12:33:39;96845.03;;;26.28;57.00
57442;BME280;43284;47.042;15.498;2023-07-31T12:36:11;96847.47;;;26.15;58.82
57442;BME280;43284;47.042;15.498;2023-07-31T12:38:43;96841.84;;;26.09;58.38
57442;BME280;43284;47.042;15.498;2023-07-31T12:41:09;96839.16;;;26.09;58.20
57442;BME280;43284;47.042;15.498;2023-07-31T12:43:35;96832.22;;;26.00;57.36
57442;BME280;43284;47.042;15.498;2023-07-31T12:46:01;96821.94;;;26.04;57.89
57442;BME280;43284;47.042;15.498;2023-07-31T12:48:27;96825.06;;;25.93;56.62
57442;BME280;43284;47.042;15.498;2023-07-31T12:50:53;96819.09;;;25.82;57.87
57442;BME280;43284;47.042;15.498;2023-07-31T12:53:18;96818.50;;;25.72;57.99